Time;durP1;ratioP1;P1;durP2;ratioP2;P2;SDS_P1;SDS_P2;PMS_P1;PMS_P2;Temp;Humidity;BMP_temperature;BMP_pressure;BME280_temperature;BME280_humidity;BME280_pressure;Samples;Min_cycle;Max_cycle;Signal;HPM_P1;HPM_P2
2023/07/11 00:01:14;;;;;;;1.50;1.10;;;24.10;59.60;;;;;;5113730;28;20648;-58
2023/07/11 00:03:39;;;;;;;2.05;1.48;;;24.10;59.60;;;;;;5113371;28;20217;-59
2023/07/11 00:06:09;;;;;;;1.27;1.10;;;24.10;59.60;;;;;;5113753;28;20260;-58
2023/07/11 00:08:36;;;;;;;1.65;1.33;;;24.10;59.60;;;;;;5113916;28;20173;-58
2023/07/11 00:11:03;;;;;;;1.92;1.30;;;24.10;59.60;;;;;;5112752;28;20636;-57
2023/07/11 00:13:29;;;;;;;1.55;1.42;;;24.10;59.60;;;;;;5114159;28;20230;-57
2023/07/11 00:15:56;;;;;;;1.38;1.27;;;24.00;59.50;;;;;;5113698;28;20174;-58
2023/07/11 00:18:22;;;;;;;1.88;1.65;;;24.10;59.60;;;;;;5113243;28;20198;-57
2023/07/11 00:20:47;;;;;;;1.20;1.17;;;24.00;59.50;;;;;;5113624;28;20664;-58
2023/07/11 00:23:13;;;;;;;1.48;1.20;;;24.00;59.50;;;;;;5113407;28;20177;-56
2023/07/11 00:25:38;;;;;;;2.28;1.45;;;24.10;60.30;;;;;;5112341;28;20260;-58
2023/07/11 00:28:04;;;;;;;1.38;1.27;;;24.00;59.50;;;;;;5113516;28;20205;-57
2023/07/11 00:30:29;;;;;;;1.77;1.40;;;24.00;60.30;;;;;;5113768;28;20616;-56
2023/07/11 00:32:55;;;;;;;2.53;1.42;;;24.10;59.60;;;;;;5112967;28;20571;-57
2023/07/11 00:35:21;;;;;;;1.30;1.20;;;24.00;59.50;;;;;;5113385;28;20632;-57
2023/07/11 00:37:46;;;;;;;1.55;1.40;;;24.00;59.60;;;;;;5113018;28;20212;-58
2023/07/11 00:40:12;;;;;;;1.27;1.08;;;24.00;59.60;;;;;;5112900;28;20748;-58
2023/07/11 00:42:37;;;;;;;1.60;1.50;;;24.00;59.60;;;;;;5113375;28;20652;-58
2023/07/11 00:45:03;;;;;;;1.60;1.50;;;24.10;59.60;;;;;;5112583;28;20217;-58
2023/07/11 00:47:29;;;;;;;1.20;1.10;;;24.00;59.60;;;;;;5113319;28;20535;-58
2023/07/11 00:50:06;;;;;;;2.20;1.42;;;24.00;59.60;;;;;;5113425;28;20186;-58
2023/07/11 00:52:33;;;;;;;1.23;1.13;;;24.00;59.60;;;;;;5112756;28;20283;-57
2023/07/11 00:54:59;;;;;;;1.90;1.35;;;24.00;59.60;;;;;;5095165;28;20184;-57
2023/07/11 00:57:26;;;;;;;1.40;1.30;;;24.00;59.60;;;;;;5095342;28;20173;-57
2023/07/11 00:59:52;;;;;;;1.40;1.30;;;24.00;59.60;;;;;;5094442;28;20213;-58
2023/07/11 01:02:24;;;;;;;2.00;1.52;;;24.00;59.60;;;;;;5094831;28;20169;-58
2023/07/11 01:04:49;;;;;;;1.40;1.30;;;24.00;59.60;;;;;;5113248;28;20181;-57
2023/07/11 01:07:26;;;;;;;1.55;1.40;;;24.00;59.60;;;;;;5112153;28;20543;-58
2023/07/11 01:09:52;;;;;;;1.52;1.42;;;24.00;59.60;;;;;;5113110;28;20658;-58
2023/07/11 01:12:18;;;;;;;1.90;1.38;;;24.00;59.60;;;;;;5113074;28;20177;-57
2023/07/11 01:14:46;;;;;;;1.70;1.27;;;24.00;59.60;;;;;;5112530;28;20177;-58
2023/07/11 01:17:22;;;;;;;1.20;1.10;;;24.00;59.60;;;;;;5112933;28;20177;-57
2023/07/11 01:19:47;;;;;;;1.63;1.52;;;24.00;59.60;;;;;;5113071;28;20211;-58
2023/07/11 01:22:13;;;;;;;1.33;1.23;;;24.00;59.60;;;;;;5112201;28;20165;-58
2023/07/11 01:24:38;;;;;;;1.42;0.93;;;24.00;59.60;;;;;;5112989;28;20173;-57
2023/07/11 01:27:04;;;;;;;1.38;1.30;;;24.00;59.60;;;;;;5112054;28;20173;-57
2023/07/11 01:29:29;;;;;;;1.55;1.25;;;24.00;59.60;;;;;;5113370;28;20184;-58
2023/07/11 01:31:55;;;;;;;2.20;1.50;;;24.00;59.60;;;;;;5113191;28;20172;-57
2023/07/11 01:34:21;;;;;;;1.77;1.27;;;24.00;59.60;;;;;;5112217;28;20230;-57
2023/07/11 01:36:46;;;;;;;1.48;1.33;;;23.90;59.60;;;;;;5113162;28;20616;-58
2023/07/11 01:39:12;;;;;;;2.38;1.60;;;23.90;59.60;;;;;;5115483;28;20233;-58
2023/07/11 01:41:37;;;;;;;1.88;1.48;;;24.00;59.70;;;;;;5116216;28;20173;-58
2023/07/11 01:44:03;;;;;;;1.30;1.20;;;23.90;59.60;;;;;;5116502;28;20169;-58
2023/07/11 01:46:29;;;;;;;1.88;1.40;;;24.00;59.60;;;;;;5116730;28;20181;-58
2023/07/11 01:48:54;;;;;;;1.25;1.15;;;23.90;59.60;;;;;;5115754;28;20184;-58
2023/07/11 01:51:20;;;;;;;1.65;1.25;;;23.90;59.60;;;;;;5117207;28;20173;-57
2023/07/11 01:53:45;;;;;;;1.33;1.20;;;23.90;59.60;;;;;;5116673;28;20211;-57
2023/07/11 01:56:11;;;;;;;2.15;1.67;;;23.90;59.60;;;;;;5115569;28;20208;-57
2023/07/11 01:58:38;;;;;;;2.10;1.58;;;23.90;59.60;;;;;;5116579;28;20193;-58
2023/07/11 02:01:03;;;;;;;1.52;1.40;;;23.90;59.60;;;;;;5115955;28;20208;-58
2023/07/11 02:03:29;;;;;;;1.42;1.33;;;23.90;59.60;;;;;;5115516;28;20259;-58
2023/07/11 02:05:55;;;;;;;1.58;1.25;;;23.90;60.30;;;;;;5116501;28;20181;-58
2023/07/11 02:08:20;;;;;;;1.40;1.20;;;23.90;59.60;;;;;;5116018;28;20575;-58
2023/07/11 02:10:46;;;;;;;2.08;1.50;;;23.90;59.60;;;;;;5115625;28;20174;-57
2023/07/11 02:13:11;;;;;;;2.15;1.48;;;23.90;59.60;;;;;;5115880;28;20284;-58
2023/07/11 02:15:37;;;;;;;1.50;1.40;;;23.90;59.60;;;;;;5116304;28;20173;-57
2023/07/11 02:18:05;;;;;;;1.20;1.20;;;23.90;59.60;;;;;;5114997;28;20541;-58
2023/07/11 02:20:31;;;;;;;1.52;1.42;;;23.90;59.60;;;;;;5116063;28;20216;-58
2023/07/11 02:22:59;;;;;;;1.25;1.20;;;23.90;59.60;;;;;;5115900;28;20165;-57
2023/07/11 02:25:25;;;;;;;1.50;1.40;;;23.90;59.60;;;;;;5115368;28;20257;-58
2023/07/11 02:27:51;;;;;;;1.33;1.23;;;23.90;59.70;;;;;;5115862;28;20598;-57
2023/07/11 02:30:16;;;;;;;1.48;1.33;;;23.90;59.60;;;;;;5115474;28;20177;-56
2023/07/11 02:32:42;;;;;;;1.75;1.50;;;23.90;59.70;;;;;;5115045;28;20260;-57
2023/07/11 02:35:08;;;;;;;1.38;1.27;;;23.90;60.40;;;;;;5115420;28;20202;-58
2023/07/11 02:37:33;;;;;;;1.38;1.27;;;23.90;59.60;;;;;;5114886;28;20180;-57
2023/07/11 02:39:59;;;;;;;1.67;1.58;;;23.90;60.40;;;;;;5115432;28;20247;-58
2023/07/11 02:42:25;;;;;;;1.45;1.30;;;23.90;59.60;;;;;;5115584;28;20176;-58
2023/07/11 02:44:50;;;;;;;1.70;1.60;;;23.90;59.60;;;;;;5114739;28;20573;-58
2023/07/11 02:47:16;;;;;;;1.55;1.40;;;23.80;59.60;;;;;;5115156;28;20623;-57
2023/07/11 02:49:41;;;;;;;1.40;1.30;;;23.90;59.60;;;;;;5115246;28;20177;-58
2023/07/11 02:52:08;;;;;;;2.42;1.50;;;23.80;59.60;;;;;;5114554;28;20624;-57
2023/07/11 02:54:36;;;;;;;1.67;1.58;;;23.80;59.60;;;;;;5115510;28;20589;-55
2023/07/11 02:57:03;;;;;;;1.52;1.35;;;23.90;59.60;;;;;;5115211;28;20181;-57
2023/07/11 02:59:29;;;;;;;1.77;1.40;;;23.80;59.60;;;;;;5114538;28;20209;-59
2023/07/11 03:01:56;;;;;;;1.60;1.40;;;23.80;59.60;;;;;;5097038;28;20172;-58
2023/07/11 03:04:22;;;;;;;1.48;1.40;;;23.80;59.60;;;;;;5115281;28;20588;-58
2023/07/11 03:06:47;;;;;;;2.05;1.58;;;23.80;60.30;;;;;;5114522;28;20665;-58
2023/07/11 03:09:13;;;;;;;1.60;1.50;;;23.90;59.60;;;;;;5115017;28;20177;-58
2023/07/11 03:11:38;;;;;;;3.05;1.38;;;23.80;59.60;;;;;;5115106;28;20268;-58
2023/07/11 03:14:04;;;;;;;1.67;1.40;;;23.80;59.60;;;;;;5113995;28;20608;-58
2023/07/11 03:16:29;;;;;;;1.70;1.48;;;23.80;59.60;;;;;;5115128;28;20647;-58
2023/07/11 03:18:55;;;;;;;1.27;1.23;;;23.80;59.60;;;;;;5115009;28;20201;-58
2023/07/11 03:21:21;;;;;;;1.35;1.25;;;23.80;59.60;;;;;;5114297;28;20173;-58
2023/07/11 03:23:46;;;;;;;1.98;1.38;;;23.80;59.60;;;;;;5114927;28;20200;-58
2023/07/11 03:26:12;;;;;;;1.98;1.38;;;23.80;59.60;;;;;;5114539;28;20169;-57
2023/07/11 03:28:38;;;;;;;2.35;1.42;;;23.80;59.60;;;;;;5113980;28;20256;-57
2023/07/11 03:31:03;;;;;;;2.10;1.90;;;23.80;59.60;;;;;;5114186;28;20199;-55
2023/07/11 03:33:29;;;;;;;1.35;1.25;;;23.80;59.60;;;;;;5115440;28;20173;-58
2023/07/11 03:35:54;;;;;;;1.70;1.50;;;23.80;59.60;;;;;;5114024;28;20587;-58
2023/07/11 03:38:20;;;;;;;1.38;1.27;;;23.80;59.60;;;;;;5113913;28;20220;-58
2023/07/11 03:40:45;;;;;;;1.48;1.38;;;23.80;59.60;;;;;;5113826;28;20290;-58
2023/07/11 03:43:11;;;;;;;1.75;1.45;;;23.80;59.60;;;;;;5114170;28;20173;-58
2023/07/11 03:45:40;;;;;;;1.98;1.30;;;23.80;59.60;;;;;;5114350;28;20173;-58
2023/07/11 03:48:05;;;;;;;1.30;1.17;;;23.80;59.60;;;;;;5113445;28;20177;-58
2023/07/11 03:50:31;;;;;;;1.77;1.30;;;23.80;59.60;;;;;;5114395;28;20535;-57
2023/07/11 03:52:56;;;;;;;1.45;1.20;;;23.80;59.60;;;;;;5113986;28;20200;-56
2023/07/11 03:55:22;;;;;;;3.25;1.50;;;23.80;59.60;;;;;;5113877;28;20185;-57
2023/07/11 03:57:47;;;;;;;2.03;1.20;;;23.70;59.50;;;;;;5114060;28;20629;-58
2023/07/11 04:00:13;;;;;;;1.55;1.20;;;23.80;59.60;;;;;;5112972;28;20680;-58
2023/07/11 04:02:39;;;;;;;1.70;1.58;;;23.80;59.60;;;;;;5113558;28;20639;-57
2023/07/11 04:05:05;;;;;;;1.40;1.30;;;23.80;59.60;;;;;;5113862;28;20512;-58
2023/07/11 04:07:30;;;;;;;1.52;1.42;;;23.80;59.60;;;;;;5113961;28;20207;-58
2023/07/11 04:09:56;;;;;;;1.60;1.27;;;23.80;59.60;;;;;;5112893;28;20189;-57
2023/07/11 04:12:21;;;;;;;2.65;1.80;;;23.80;59.60;;;;;;5114087;28;20574;-57
2023/07/11 04:14:47;;;;;;;1.30;1.20;;;23.80;59.60;;;;;;5113768;28;20227;-57
2023/07/11 04:17:12;;;;;;;1.67;1.42;;;23.80;59.60;;;;;;5112889;28;20230;-58
2023/07/11 04:19:38;;;;;;;1.88;1.52;;;23.80;60.20;;;;;;5113757;28;20209;-57
2023/07/11 04:22:03;;;;;;;2.53;1.70;;;23.70;59.50;;;;;;5113552;28;20172;-58
2023/07/11 04:24:29;;;;;;;2.00;1.40;;;23.70;59.50;;;;;;5113071;28;20302;-58
2023/07/11 04:26:54;;;;;;;1.92;1.60;;;23.80;59.50;;;;;;5113712;28;20639;-57
2023/07/11 04:29:20;;;;;;;1.67;1.52;;;23.70;59.50;;;;;;5113181;28;20654;-56
2023/07/11 04:31:45;;;;;;;2.95;1.70;;;23.80;59.50;;;;;;5113009;28;20578;-56
2023/07/11 04:34:11;;;;;;;1.80;1.30;;;23.80;59.60;;;;;;5113452;28;20238;-58
2023/07/11 04:36:36;;;;;;;1.90;1.63;;;23.70;59.50;;;;;;5113487;28;20274;-58
2023/07/11 04:39:03;;;;;;;1.63;1.52;;;23.80;59.50;;;;;;5112201;28;20224;-58
2023/07/11 04:41:28;;;;;;;1.45;1.35;;;23.80;59.50;;;;;;5113687;28;20181;-58
2023/07/11 04:43:54;;;;;;;1.58;1.48;;;23.80;59.60;;;;;;5113416;28;20180;-58
2023/07/11 04:46:19;;;;;;;1.60;1.50;;;23.70;59.50;;;;;;5112568;28;20173;-58
2023/07/11 04:48:46;;;;;;;1.30;1.20;;;23.80;59.50;;;;;;5113263;28;20212;-58
2023/07/11 04:51:11;;;;;;;2.13;1.60;;;23.80;59.50;;;;;;5094157;28;20205;-58
2023/07/11 04:53:37;;;;;;;1.63;1.50;;;23.80;59.50;;;;;;5113198;28;20215;-58
2023/07/11 04:56:07;;;;;;;1.38;1.27;;;23.80;59.50;;;;;;5112862;28;20173;-57
2023/07/11 04:58:33;;;;;;;1.67;1.58;;;23.70;59.50;;;;;;5112509;28;20184;-58
2023/07/11 05:01:10;;;;;;;2.00;1.80;;;23.80;59.50;;;;;;5112849;28;20659;-58
2023/07/11 05:03:36;;;;;;;1.48;1.38;;;23.80;59.50;;;;;;5113365;28;20183;-58
2023/07/11 05:06:02;;;;;;;1.73;1.40;;;23.80;59.50;;;;;;5112235;28;20181;-58
2023/07/11 05:08:28;;;;;;;1.30;1.20;;;23.80;59.50;;;;;;5113057;28;20531;-58
2023/07/11 05:11:12;;;;;;;2.13;1.70;;;23.80;59.50;;;;;;5113036;28;20173;-57
2023/07/11 05:13:38;;;;;;;1.67;1.30;;;23.80;59.50;;;;;;5116736;28;20165;-57
2023/07/11 05:16:09;;;;;;;2.45;1.60;;;23.80;59.50;;;;;;5117015;28;20670;-56
2023/07/11 05:18:37;;;;;;;1.95;1.75;;;23.80;59.50;;;;;;5117394;28;20169;-58
2023/07/11 05:21:03;;;;;;;1.30;1.20;;;23.80;59.50;;;;;;5116127;28;20291;-58
2023/07/11 05:23:29;;;;;;;2.05;1.33;;;23.80;59.50;;;;;;5116958;28;20249;-57
2023/07/11 05:25:55;;;;;;;1.60;1.30;;;23.80;59.40;;;;;;5117275;28;20184;-57
2023/07/11 05:28:21;;;;;;;1.45;1.35;;;23.80;59.50;;;;;;5116383;28;20173;-56
2023/07/11 05:30:47;;;;;;;1.67;1.58;;;23.80;59.50;;;;;;5117186;28;20260;-57
2023/07/11 05:33:12;;;;;;;2.00;1.50;;;23.80;59.50;;;;;;5116217;28;20248;-58
2023/07/11 05:35:46;;;;;;;1.65;1.50;;;23.80;59.60;;;;;;5117208;28;20177;-58
2023/07/11 05:38:13;;;;;;;1.27;1.15;;;23.90;60.20;;;;;;5116270;28;20702;-58
2023/07/11 05:40:41;;;;;;;1.63;1.50;;;23.80;59.50;;;;;;5115931;28;20683;-58
2023/07/11 05:43:06;;;;;;;1.73;1.42;;;23.80;59.50;;;;;;5116277;28;20177;-58
2023/07/11 05:45:32;;;;;;;1.92;1.75;;;23.80;59.50;;;;;;5116673;28;20279;-58
2023/07/11 05:47:59;;;;;;;1.33;1.23;;;23.80;59.50;;;;;;5115639;28;20209;-58
2023/07/11 05:50:26;;;;;;;2.28;1.40;;;23.80;59.50;;;;;;5116611;28;20188;-58
2023/07/11 05:52:51;;;;;;;1.70;1.30;;;23.80;59.50;;;;;;5116784;28;20219;-58
2023/07/11 05:55:17;;;;;;;1.67;1.58;;;23.80;59.50;;;;;;5115755;28;20173;-57
2023/07/11 05:57:42;;;;;;;1.85;1.38;;;23.80;59.50;;;;;;5116380;28;20252;-58
2023/07/11 06:00:11;;;;;;;1.60;1.50;;;23.80;59.40;;;;;;5116001;28;20209;-58
2023/07/11 06:02:37;;;;;;;1.60;1.45;;;23.80;59.50;;;;;;5115595;28;20165;-58
2023/07/11 06:05:03;;;;;;;1.45;1.35;;;23.80;59.40;;;;;;5115862;28;20180;-58
2023/07/11 06:07:28;;;;;;;1.83;1.25;;;23.80;59.40;;;;;;5116619;28;20173;-59
2023/07/11 06:09:55;;;;;;;2.28;1.40;;;23.80;59.40;;;;;;5115742;28;20611;-57
2023/07/11 06:12:21;;;;;;;1.50;1.40;;;23.90;59.50;;;;;;5116544;28;20173;-58
2023/07/11 06:14:48;;;;;;;1.67;1.50;;;23.80;59.40;;;;;;5116227;28;20260;-57
2023/07/11 06:17:14;;;;;;;1.50;1.40;;;23.80;59.40;;;;;;5115162;28;20181;-57
2023/07/11 06:19:40;;;;;;;1.73;1.30;;;23.80;59.40;;;;;;5115878;28;20219;-58
2023/07/11 06:22:05;;;;;;;1.23;1.13;;;23.80;59.50;;;;;;5115930;28;20165;-58
2023/07/11 06:24:31;;;;;;;1.45;1.35;;;23.80;59.40;;;;;;5114621;28;20636;-58
2023/07/11 06:26:56;;;;;;;1.88;1.65;;;23.80;59.40;;;;;;5115767;28;20252;-56
2023/07/11 06:29:22;;;;;;;1.60;1.50;;;23.80;59.40;;;;;;5116042;28;20314;-55
2023/07/11 06:31:47;;;;;;;1.40;1.30;;;23.80;59.40;;;;;;5115207;28;20176;-57
2023/07/11 06:34:13;;;;;;;1.58;1.38;;;23.80;59.40;;;;;;5115428;28;20172;-58
2023/07/11 06:36:38;;;;;;;1.45;1.35;;;23.80;59.40;;;;;;5115158;28;20181;-58
2023/07/11 06:39:04;;;;;;;1.40;1.20;;;23.80;59.40;;;;;;5115090;28;20740;-58
2023/07/11 06:41:29;;;;;;;2.72;1.30;;;23.80;59.40;;;;;;5115811;28;20666;-58
2023/07/11 06:43:56;;;;;;;1.98;1.42;;;23.80;59.40;;;;;;5114826;28;20173;-58
2023/07/11 06:46:21;;;;;;;1.92;1.45;;;23.80;59.40;;;;;;5115558;28;20173;-58
2023/07/11 06:48:47;;;;;;;2.00;1.40;;;23.80;59.40;;;;;;5115560;28;20222;-58
2023/07/11 06:51:12;;;;;;;1.45;1.30;;;23.80;59.40;;;;;;5114721;28;20169;-58
2023/07/11 06:53:38;;;;;;;1.67;1.58;;;23.80;59.40;;;;;;5115624;28;20173;-58
2023/07/11 06:56:04;;;;;;;1.95;1.50;;;23.80;59.40;;;;;;5115071;28;20258;-58
2023/07/11 06:58:30;;;;;;;1.40;1.30;;;23.90;59.40;;;;;;5114746;28;20173;-58
2023/07/11 07:01:01;;;;;;;1.77;1.65;;;23.80;59.40;;;;;;5115300;28;20208;-58
2023/07/11 07:03:27;;;;;;;1.40;1.30;;;23.80;59.40;;;;;;5115110;28;20173;-58
2023/07/11 07:05:59;;;;;;;1.58;1.40;;;23.80;59.40;;;;;;5114658;28;20245;-58
2023/07/11 07:08:25;;;;;;;1.60;1.50;;;23.80;59.40;;;;;;5115334;28;20173;-55
2023/07/11 07:10:50;;;;;;;1.17;1.15;;;23.90;59.40;;;;;;5115311;28;20165;-58
2023/07/11 07:13:17;;;;;;;1.88;1.73;;;23.80;59.40;;;;;;5114014;28;20173;-57
2023/07/11 07:15:45;;;;;;;1.23;1.20;;;23.80;59.40;;;;;;5114877;28;20206;-58
2023/07/11 07:18:11;;;;;;;1.63;1.42;;;23.80;59.40;;;;;;5096964;28;20230;-57
2023/07/11 07:20:36;;;;;;;2.17;1.42;;;23.90;59.40;;;;;;5113973;28;20213;-57
2023/07/11 07:23:03;;;;;;;1.98;1.70;;;23.80;59.30;;;;;;5114568;28;20176;-56
2023/07/11 07:25:29;;;;;;;2.83;1.50;;;23.80;59.30;;;;;;5114766;28;20188;-56
2023/07/11 07:27:55;;;;;;;2.10;1.48;;;23.90;59.30;;;;;;5113994;28;20177;-57
2023/07/11 07:30:20;;;;;;;1.42;1.33;;;23.90;59.30;;;;;;5114721;28;20256;-58
2023/07/11 07:32:46;;;;;;;1.58;1.42;;;23.90;59.20;;;;;;5113959;28;20173;-57
2023/07/11 07:35:11;;;;;;;1.45;1.35;;;23.90;59.30;;;;;;5114193;28;20188;-58
2023/07/11 07:37:37;;;;;;;1.77;1.40;;;23.90;59.20;;;;;;5114296;28;20187;-58
2023/07/11 07:40:03;;;;;;;1.73;1.38;;;23.90;59.90;;;;;;5113471;28;20209;-58
2023/07/11 07:42:29;;;;;;;1.67;1.20;;;23.90;59.20;;;;;;5114467;28;20169;-58
2023/07/11 07:44:55;;;;;;;3.65;1.77;;;23.90;59.20;;;;;;5114421;28;20181;-58
2023/07/11 07:47:20;;;;;;;1.85;1.52;;;23.90;59.20;;;;;;5113687;28;20169;-58
2023/07/11 07:49:46;;;;;;;2.67;1.60;;;23.90;59.20;;;;;;5114412;28;20653;-58
2023/07/11 07:52:12;;;;;;;2.30;1.92;;;23.90;59.20;;;;;;5114162;28;20173;-57
2023/07/11 07:54:37;;;;;;;3.70;1.65;;;23.90;59.20;;;;;;5113515;28;20177;-58
2023/07/11 07:57:03;;;;;;;1.30;1.20;;;23.90;59.80;;;;;;5113874;28;20177;-58
2023/07/11 07:59:29;;;;;;;3.58;1.83;;;23.90;59.10;;;;;;5114035;28;20233;-58
2023/07/11 08:01:54;;;;;;;1.98;1.63;;;23.90;59.10;;;;;;5113338;28;20632;-58
2023/07/11 08:04:20;;;;;;;1.52;1.42;;;23.90;59.10;;;;;;5114211;28;20176;-59
2023/07/11 08:06:45;;;;;;;2.95;1.90;;;23.90;59.10;;;;;;5114259;28;20623;-58
2023/07/11 08:09:11;;;;;;;2.67;1.52;;;23.90;59.00;;;;;;5113271;28;20559;-58
2023/07/11 08:11:37;;;;;;;1.65;1.45;;;23.90;59.00;;;;;;5114203;28;20235;-58
2023/07/11 08:14:02;;;;;;;2.13;1.25;;;24.00;59.00;;;;;;5113636;28;20177;-58
2023/07/11 08:16:28;;;;;;;2.75;1.60;;;23.90;59.00;;;;;;5113254;28;20231;-58
2023/07/11 08:18:53;;;;;;;1.50;1.40;;;23.90;58.90;;;;;;5113819;28;20181;-58
2023/07/11 08:21:19;;;;;;;1.63;1.50;;;24.00;58.90;;;;;;5113388;28;20212;-58
2023/07/11 08:23:44;;;;;;;1.98;1.77;;;23.90;58.80;;;;;;5113200;28;20169;-58
2023/07/11 08:26:10;;;;;;;1.55;1.45;;;24.00;58.80;;;;;;5113468;28;20177;-57
2023/07/11 08:28:36;;;;;;;2.38;1.48;;;23.90;58.70;;;;;;5113564;28;20173;-57
2023/07/11 08:31:03;;;;;;;1.95;1.40;;;24.00;58.80;;;;;;5112502;28;20187;-56
2023/07/11 08:33:29;;;;;;;1.92;1.73;;;24.00;58.70;;;;;;5113787;28;20169;-57
2023/07/11 08:35:56;;;;;;;1.80;1.70;;;24.00;58.70;;;;;;5113763;28;20173;-57
2023/07/11 08:38:22;;;;;;;3.65;2.10;;;24.00;58.60;;;;;;5112447;28;20224;-58
2023/07/11 08:40:47;;;;;;;2.63;1.67;;;24.00;58.60;;;;;;5113556;28;20249;-58
2023/07/11 08:43:19;;;;;;;1.60;1.50;;;24.00;58.50;;;;;;5094420;28;20173;-58
2023/07/11 08:46:13;;;;;;;2.10;1.90;;;24.00;58.50;;;;;;5096241;28;20191;-58
2023/07/11 08:48:50;;;;;;;1.90;1.80;;;24.00;58.50;;;;;;5111215;28;20185;-58
2023/07/11 08:51:23;;;;;;;1.90;1.70;;;24.00;58.40;;;;;;5094350;28;20173;-57
2023/07/11 08:53:55;;;;;;;2.65;1.80;;;24.00;58.50;;;;;;5095498;28;20169;-57
2023/07/11 08:56:29;;;;;;;1.33;1.23;;;24.10;58.50;;;;;;5095311;28;20638;-56
2023/07/11 08:58:54;;;;;;;1.70;1.60;;;24.00;58.40;;;;;;5094696;28;20666;-58
2023/07/11 09:01:38;;;;;;;1.70;1.60;;;24.10;58.40;;;;;;5094949;28;20212;-57
2023/07/11 09:04:03;;;;;;;1.90;1.65;;;24.00;58.40;;;;;;5096656;28;20169;-58
2023/07/11 09:06:39;;;;;;;1.65;1.42;;;24.00;58.40;;;;;;5094344;28;20239;-58
2023/07/11 09:09:04;;;;;;;1.83;1.55;;;24.00;58.40;;;;;;5094888;28;20200;-58
2023/07/11 09:11:36;;;;;;;1.70;1.50;;;24.10;58.40;;;;;;5112686;28;20193;-57
2023/07/11 09:14:35;;;;;;;1.88;1.52;;;24.10;58.50;;;;;;5094682;28;20524;-58
2023/07/11 09:17:27;;;;;;;1.98;1.77;;;24.10;58.40;;;;;;5112794;28;20176;-58
2023/07/11 09:20:25;;;;;;;1.67;1.58;;;24.00;58.30;;;;;;5105379;28;20219;-58
2023/07/11 09:22:58;;;;;;;1.83;1.55;;;24.10;58.30;;;;;;5097312;28;20180;-58
2023/07/11 09:25:32;;;;;;;2.15;1.52;;;24.10;58.60;;;;;;5094331;28;20165;-57
2023/07/11 09:28:27;;;;;;;1.80;1.55;;;24.10;58.40;;;;;;5094910;28;20181;-57
2023/07/11 09:30:57;;;;;;;3.17;1.70;;;24.20;58.40;;;;;;5110055;28;20268;-55
2023/07/11 09:33:34;;;;;;;2.13;1.60;;;24.10;58.40;;;;;;5094246;28;20177;-58
2023/07/11 09:36:01;;;;;;;2.08;1.58;;;24.10;58.20;;;;;;5094633;28;20172;-58
2023/07/11 09:38:42;;;;;;;1.90;1.50;;;24.20;58.50;;;;;;5112626;28;20626;-58
2023/07/11 09:41:18;;;;;;;2.38;1.35;;;24.10;58.50;;;;;;5093816;28;20212;-57
2023/07/11 09:43:43;;;;;;;3.83;1.90;;;24.10;58.50;;;;;;5095891;28;20172;-58
2023/07/11 09:46:13;;;;;;;2.55;1.70;;;24.10;58.50;;;;;;5112485;28;20202;-58
2023/07/11 09:48:39;;;;;;;1.77;1.58;;;24.10;58.30;;;;;;5112041;28;20180;-58
2023/07/11 09:51:24;;;;;;;2.70;1.60;;;24.10;58.20;;;;;;5112653;28;20173;-58
2023/07/11 09:53:53;;;;;;;2.08;1.42;;;24.20;58.40;;;;;;5112143;28;20195;-57
2023/07/11 09:56:18;;;;;;;3.05;1.38;;;24.20;58.30;;;;;;5112507;28;20181;-57
2023/07/11 09:58:52;;;;;;;1.38;1.27;;;24.20;58.60;;;;;;5113570;28;20268;-58
2023/07/11 10:01:31;;;;;;;2.38;1.50;;;24.20;58.80;;;;;;5115471;28;20215;-58
2023/07/11 10:03:58;;;;;;;1.40;1.30;;;24.20;58.80;;;;;;5116316;28;20249;-59
2023/07/11 10:06:28;;;;;;;1.83;1.33;;;24.20;58.60;;;;;;5116331;28;20181;-58
2023/07/11 10:08:54;;;;;;;1.50;1.40;;;24.20;58.40;;;;;;5115503;28;20177;-58
2023/07/11 10:11:19;;;;;;;1.58;1.45;;;24.20;58.30;;;;;;5116050;28;20524;-57
2023/07/11 10:13:45;;;;;;;1.95;1.70;;;24.20;58.50;;;;;;5097988;28;20212;-57
2023/07/11 10:16:15;;;;;;;2.15;1.50;;;24.20;58.40;;;;;;5115417;28;20201;-55
2023/07/11 10:18:43;;;;;;;3.03;1.50;;;24.20;58.40;;;;;;5116120;28;20699;-58
2023/07/11 10:21:15;;;;;;;1.50;1.40;;;24.20;58.50;;;;;;5115769;28;20683;-58
2023/07/11 10:23:42;;;;;;;1.77;1.48;;;24.20;58.50;;;;;;5115224;28;20186;-58
2023/07/11 10:26:11;;;;;;;1.40;1.30;;;24.20;58.50;;;;;;5097762;28;20173;-58
2023/07/11 10:28:42;;;;;;;1.58;1.42;;;24.30;58.80;;;;;;5115549;28;20205;-57
2023/07/11 10:31:32;;;;;;;1.58;1.48;;;24.30;58.70;;;;;;5098238;28;20593;-58
2023/07/11 10:34:04;;;;;;;1.50;1.40;;;24.30;58.50;;;;;;5092414;28;20184;-57
2023/07/11 10:36:38;;;;;;;2.20;1.45;;;24.30;58.40;;;;;;5097150;28;20212;-58
2023/07/11 10:39:39;;;;;;;1.27;1.17;;;24.30;58.70;;;;;;5097127;28;20225;-58
2023/07/11 10:42:23;;;;;;;1.77;1.45;;;24.30;58.70;;;;;;5098287;28;20207;-57
2023/07/11 10:44:48;;;;;;;1.80;1.40;;;24.30;58.80;;;;;;5115171;28;20173;-58
2023/07/11 10:47:20;;;;;;;1.25;1.15;;;24.30;58.30;;;;;;5097270;28;20184;-58
2023/07/11 10:49:49;;;;;;;1.65;1.38;;;24.30;58.60;;;;;;5096917;28;20238;-58
2023/07/11 10:52:19;;;;;;;2.42;1.30;;;24.30;58.40;;;;;;5097217;28;20202;-57
2023/07/11 10:54:56;;;;;;;1.27;1.17;;;24.40;58.50;;;;;;5097860;28;20265;-58
2023/07/11 10:57:46;;;;;;;1.40;1.30;;;24.40;58.70;;;;;;5114562;28;20532;-57
2023/07/11 11:00:46;;;;;;;2.05;1.40;;;24.40;58.80;;;;;;5097079;28;20205;-58
2023/07/11 11:03:24;;;;;;;2.55;1.70;;;24.30;58.60;;;;;;5091247;28;20264;-58
2023/07/11 11:05:59;;;;;;;1.85;1.55;;;24.40;58.50;;;;;;5097382;28;20213;-58
2023/07/11 11:08:45;;;;;;;1.23;1.13;;;24.40;58.50;;;;;;5096999;28;20185;-58
2023/07/11 11:11:38;;;;;;;1.40;1.30;;;24.40;58.40;;;;;;5095622;28;20532;-58
2023/07/11 11:14:09;;;;;;;1.50;1.40;;;24.40;58.70;;;;;;5100042;28;20208;-57
2023/07/11 11:16:55;;;;;;;1.52;1.20;;;24.40;58.80;;;;;;5096946;28;20181;-58
2023/07/11 11:19:41;;;;;;;1.40;1.23;;;24.40;58.60;;;;;;5098648;28;20227;-58
2023/07/11 11:22:13;;;;;;;1.30;1.20;;;24.40;58.50;;;;;;5096649;28;20181;-58
2023/07/11 11:24:50;;;;;;;1.85;1.45;;;24.50;58.70;;;;;;5114944;28;20215;-57
2023/07/11 11:27:35;;;;;;;1.75;1.27;;;24.40;58.70;;;;;;5114232;28;20180;-58
2023/07/11 11:30:28;;;;;;;1.58;1.48;;;24.50;58.40;;;;;;5114608;28;20260;-56
2023/07/11 11:33:32;;;;;;;1.60;1.50;;;24.50;58.60;;;;;;5097530;28;20251;-58
2023/07/11 11:36:21;;;;;;;1.90;1.42;;;24.50;59.30;;;;;;5114522;28;20191;-58
2023/07/11 11:38:53;;;;;;;1.90;1.02;;;24.50;58.70;;;;;;5096672;28;20729;-58
2023/07/11 11:41:22;;;;;;;1.85;1.40;;;24.50;58.70;;;;;;5113709;28;20248;-58
2023/07/11 11:43:48;;;;;;;1.40;1.30;;;24.50;58.60;;;;;;5096419;28;20176;-58
2023/07/11 11:46:14;;;;;;;1.50;1.40;;;24.50;58.60;;;;;;5113435;28;20229;-58
2023/07/11 11:48:40;;;;;;;1.55;1.25;;;24.50;58.60;;;;;;5096052;28;20161;-58
2023/07/11 11:51:08;;;;;;;1.52;1.42;;;24.50;58.60;;;;;;5095709;28;20218;-57
2023/07/11 11:53:44;;;;;;;3.83;1.58;;;24.50;58.70;;;;;;5095119;28;20209;-58
2023/07/11 11:56:13;;;;;;;1.50;1.40;;;24.50;58.60;;;;;;5113763;28;20180;-56
2023/07/11 11:59:00;;;;;;;1.58;1.20;;;24.50;58.70;;;;;;5096259;28;20181;-56
2023/07/11 12:01:55;;;;;;;1.38;1.25;;;24.50;58.70;;;;;;5113207;28;20208;-58
2023/07/11 12:04:27;;;;;;;1.67;1.50;;;24.60;58.90;;;;;;5119511;27;20185;-58
2023/07/11 12:07:02;;;;;;;2.00;1.27;;;24.60;58.80;;;;;;5117973;27;20181;-57
2023/07/11 12:09:33;;;;;;;1.33;1.23;;;24.60;58.80;;;;;;5115813;27;20173;-54
2023/07/11 12:12:16;;;;;;;1.42;1.30;;;24.60;58.80;;;;;;5134147;27;20179;-55
2023/07/11 12:15:00;;;;;;;1.25;1.15;;;24.60;58.80;;;;;;5133755;27;20177;-56
2023/07/11 12:17:47;;;;;;;1.58;1.35;;;24.60;58.70;;;;;;5134462;27;20176;-56
2023/07/11 12:20:18;;;;;;;2.30;1.20;;;24.50;58.60;;;;;;5113232;28;20229;-55
2023/07/11 12:22:44;;;;;;;2.15;1.20;;;24.50;58.60;;;;;;5112325;28;20180;-57
2023/07/11 12:25:12;;;;;;;1.70;1.38;;;24.60;58.70;;;;;;5112669;28;20169;-57
2023/07/11 12:27:38;;;;;;;1.52;1.42;;;24.50;58.60;;;;;;5113379;28;20177;-55
2023/07/11 12:30:13;;;;;;;1.80;1.30;;;24.50;58.70;;;;;;5112467;28;20172;-56
2023/07/11 12:32:40;;;;;;;2.03;1.27;;;24.60;58.60;;;;;;5112569;28;20560;-57
2023/07/11 12:35:06;;;;;;;1.17;1.13;;;24.60;58.60;;;;;;5115588;27;20187;-57
2023/07/11 12:37:37;;;;;;;1.70;1.25;;;24.60;58.50;;;;;;5133089;27;20191;-57
2023/07/11 12:40:19;;;;;;;1.45;1.30;;;24.60;58.50;;;;;;5133957;27;20208;-57
2023/07/11 12:42:51;;;;;;;1.10;1.00;;;24.60;58.50;;;;;;5098185;27;20180;-57
2023/07/11 12:45:32;;;;;;;1.30;1.20;;;24.60;58.50;;;;;;5131127;27;20188;-57
2023/07/11 12:48:10;;;;;;;1.13;1.05;;;24.60;58.40;;;;;;5095202;28;20161;-57
2023/07/11 12:51:04;;;;;;;2.35;1.40;;;24.60;58.40;;;;;;5094767;28;20176;-55
2023/07/11 12:53:34;;;;;;;1.77;1.30;;;24.60;58.40;;;;;;5050449;28;20191;-56
2023/07/11 12:56:00;;;;;;;1.45;1.35;;;24.70;58.40;;;;;;5095217;28;20173;-56
2023/07/11 12:58:27;;;;;;;2.22;1.63;;;24.70;58.30;;;;;;5112521;28;20590;-57